Time;durP1;ratioP1;P1;durP2;ratioP2;P2;SDS_P1;SDS_P2;PMS_P1;PMS_P2;Temp;Humidity;BMP_temperature;BMP_pressure;BME280_temperature;BME280_humidity;BME280_pressure;Samples;Min_cycle;Max_cycle;Signal;HPM_P1;HPM_P2
2022/08/11 00:01:24;;;;;;;;;;;;;;;15.94;100.00;91121.06;5071895;28;20083;-75
2022/08/11 00:03:59;;;;;;;7.70;5.18;;;;;;;15.85;100.00;91125.75;5071367;28;20072;-76
2022/08/11 00:06:34;;;;;;;5.70;4.57;;;;;;;15.95;100.00;91137.94;5071360;28;20501;-75
2022/08/11 00:09:03;;;;;;;8.38;5.30;;;;;;;15.94;100.00;91126.41;5071404;28;20032;-75
2022/08/11 00:11:53;;;;;;;8.23;4.68;;;;;;;15.96;100.00;91124.19;5071274;28;20024;-74
2022/08/11 00:14:22;;;;;;;7.07;5.10;;;;;;;15.87;100.00;91126.19;5061427;28;20138;-75
2022/08/11 00:17:00;;;;;;;5.90;4.88;;;;;;;15.78;100.00;91123.63;5071285;28;20035;-75
2022/08/11 00:19:28;;;;;;;5.97;4.43;;;;;;;15.74;100.00;91127.28;5071187;28;20032;-75
2022/08/11 00:21:54;;;;;;;6.95;5.22;;;;;;;15.73;100.00;91121.16;5071112;28;20024;-75
2022/08/11 00:24:22;;;;;;;9.43;6.05;;;;;;;15.73;100.00;91121.16;5071182;28;20037;-75
2022/08/11 00:26:50;;;;;;;6.65;5.70;;;;;;;15.62;100.00;91121.91;5071355;28;20435;-77
2022/08/11 00:29:15;;;;;;;6.50;4.88;;;;;;;15.52;100.00;91121.22;5053084;28;20445;-76
2022/08/11 00:31:53;;;;;;;6.65;5.03;;;;;;;15.49;100.00;91121.09;5071117;28;20024;-76
2022/08/11 00:34:26;;;;;;;9.32;4.22;;;;;;;15.38;100.00;91119.97;5070812;28;20040;-76
2022/08/11 00:37:00;;;;;;;6.50;5.38;;;;;;;15.38;100.00;91119.97;5070851;28;20041;-76
2022/08/11 00:39:29;;;;;;;5.97;4.78;;;;;;;15.47;100.00;91118.75;5071021;28;20032;-76
2022/08/11 00:42:06;;;;;;;6.28;5.20;;;;;;;15.51;100.00;91110.81;5070960;28;20036;-75
2022/08/11 00:44:56;;;;;;;8.23;4.90;;;;;;;15.62;100.00;91112.00;5071095;28;20028;-75
2022/08/11 00:47:31;;;;;;;8.93;5.35;;;;;;;15.68;100.00;91112.56;5071180;28;20032;-74
2022/08/11 00:49:59;;;;;;;6.10;5.30;;;;;;;15.72;100.00;91108.84;5070886;28;20039;-75
2022/08/11 00:53:02;;;;;;;6.90;6.20;;;;;;;15.82;100.00;91113.00;5070829;28;20024;-73
2022/08/11 00:55:39;;;;;;;6.80;5.90;;;;;;;15.84;100.00;91106.19;5070760;28;20046;-75
2022/08/11 00:58:16;;;;;;;8.65;5.63;;;;;;;15.84;100.00;91113.44;5070814;28;20033;-74
2022/08/11 01:01:15;;;;;;;7.75;6.05;;;;;;;15.85;100.00;91115.78;5070774;28;20082;-74
2022/08/11 01:04:29;;;;;;;6.25;5.63;;;;;;;15.78;100.00;91106.72;5070745;28;20070;-75
2022/08/11 01:07:28;;;;;;;6.63;5.75;;;;;;;15.79;100.00;91109.09;5070796;28;20025;-75
2022/08/11 01:10:33;;;;;;;6.13;5.15;;;;;;;15.77;100.00;91111.31;5070801;28;20020;-75
2022/08/11 01:13:45;;;;;;;8.38;5.45;;;;;;;15.85;100.00;91113.09;5066702;28;20043;-75
2022/08/11 01:16:29;;;;;;;7.82;5.55;;;;;;;15.83;100.00;91112.66;5070847;28;20037;-75
2022/08/11 01:19:13;;;;;;;6.93;5.22;;;;;;;15.77;100.00;91111.31;5070658;28;20110;-75
2022/08/11 01:22:14;;;;;;;6.70;5.43;;;;;;;15.78;100.00;91102.16;5070601;28;20032;-75
2022/08/11 01:24:50;;;;;;;4.95;4.32;;;;;;;15.83;100.00;91111.88;5069936;28;20041;-75
2022/08/11 01:27:47;;;;;;;5.63;4.63;;;;;;;15.86;100.00;91097.78;5070637;28;20032;-75
2022/08/11 01:30:38;;;;;;;4.93;4.30;;;;;;;15.82;100.00;91103.06;5064539;28;20036;-75
2022/08/11 01:33:20;;;;;;;4.88;4.38;;;;;;;15.84;100.00;91098.13;5070574;28;20118;-74
2022/08/11 01:36:36;;;;;;;4.65;4.03;;;;;;;15.78;100.00;91099.50;5070392;28;20048;-74
2022/08/11 01:39:19;;;;;;;4.97;4.40;;;;;;;15.63;100.00;91096.69;5025983;28;20037;-74
2022/08/11 01:45:09;;;;;;;4.88;3.90;;;;;;;15.50;100.00;91093.19;5074146;28;20043;-75
2022/08/11 01:47:52;;;;;;;5.75;4.20;;;;;;;15.40;100.00;91091.72;5073934;28;20029;-75
2022/08/11 01:50:41;;;;;;;5.18;3.67;;;;;;;15.38;100.00;91096.63;5073959;28;20493;-76
2022/08/11 01:53:15;;;;;;;5.43;4.55;;;;;;;15.37;100.00;91097.75;5073774;28;20060;-76
2022/08/11 01:55:56;;;;;;;5.85;4.05;;;;;;;15.33;100.00;91094.16;5073855;28;20024;-74
2022/08/11 01:58:46;;;;;;;7.30;4.82;;;;;;;15.35;100.00;91089.25;5073670;28;20123;-74
2022/08/11 02:01:39;;;;;;;7.35;4.85;;;;;;;15.28;100.00;91097.81;5073307;28;20044;-74
2022/08/11 02:04:11;;;;;;;6.68;4.50;;;;;;;15.23;100.00;91092.69;5073710;28;20123;-75
2022/08/11 02:07:01;;;;;;;5.63;4.70;;;;;;;15.24;100.00;91094.25;5073750;28;20031;-75
2022/08/11 02:11:29;;;;;;;6.10;3.78;;;;;;;15.28;100.00;91092.47;5073758;28;20025;-80
2022/08/11 02:12:55;;;;;;;6.25;4.03;;;;;;;15.15;100.00;91090.13;5073416;28;20070;-75
2022/08/11 02:15:27;;;;;;;6.07;4.28;;;;;;;15.17;100.00;91088.66;5073525;28;20017;-77
2022/08/11 02:18:20;;;;;;;5.40;4.00;;;;;;;15.14;100.00;91088.53;5055534;28;20585;-74
2022/08/11 02:23:51;;;;;;;5.88;4.60;;;;;;;15.06;100.00;91092.09;5073607;28;20063;-73
2022/08/11 02:26:28;;;;;;;5.38;4.45;;;;;;;14.89;100.00;91082.34;5073348;28;20028;-73
2022/08/11 02:29:09;;;;;;;6.07;4.13;;;;;;;14.89;100.00;91083.13;5073464;28;20475;-74
2022/08/11 02:34:47;;;;;;;4.90;4.28;;;;;;;14.79;100.00;91078.16;5073212;28;20576;-73
2022/08/11 02:37:37;;;;;;;5.78;4.32;;;;;;;14.67;100.00;91076.25;5073097;28;20047;-73
2022/08/11 02:40:23;;;;;;;6.50;5.45;;;;;;;14.65;100.00;91070.41;5072973;28;20497;-74
2022/08/11 02:43:14;;;;;;;5.28;4.57;;;;;;;14.67;100.00;91073.56;5054864;28;20482;-74
2022/08/11 02:45:53;;;;;;;5.50;4.50;;;;;;;14.73;100.00;91070.69;5072923;28;20510;-74
2022/08/11 02:52:01;;;;;;;6.25;4.55;;;;;;;14.84;100.00;91080.66;5073086;28;20097;-75
2022/08/11 02:54:30;;;;;;;5.80;4.60;;;;;;;14.88;100.00;91083.44;5054727;28;20028;-74
2022/08/11 02:57:05;;;;;;;5.65;4.55;;;;;;;14.90;100.00;91082.00;5072689;28;20103;-73
2022/08/11 02:59:54;;;;;;;4.97;4.05;;;;;;;14.96;100.00;91091.38;5072531;28;20115;-73
2022/08/11 03:02:30;;;;;;;5.53;4.10;;;;;;;14.94;100.00;91095.50;5072564;28;20059;-72
2022/08/11 03:05:01;;;;;;;7.20;4.63;;;;;;;14.91;100.00;91088.13;5072542;28;20174;-74
2022/08/11 03:07:38;;;;;;;4.80;4.22;;;;;;;14.91;100.00;91083.56;5072559;28;20082;-73
2022/08/11 03:10:10;;;;;;;5.72;4.78;;;;;;;14.93;100.00;91089.38;5072324;28;20115;-73
2022/08/11 03:19:23;;;;;;;6.57;4.10;;;;;;;14.84;100.00;91093.25;5072205;28;20031;-74
2022/08/11 03:22:06;;;;;;;7.30;4.80;;;;;;;14.75;100.00;91093.34;5038003;28;20068;-74
2022/08/11 03:24:59;;;;;;;6.30;4.68;;;;;;;14.75;100.00;91093.34;5072014;28;20024;-74
2022/08/11 03:27:32;;;;;;;5.13;4.13;;;;;;;14.69;100.00;91089.31;5072159;28;20029;-74
2022/08/11 03:30:20;;;;;;;4.43;3.80;;;;;;;14.74;100.00;91088.31;5072110;28;20552;-74
2022/08/11 03:36:18;;;;;;;6.47;4.03;;;;;;;14.39;100.00;91091.25;5071783;28;20055;-78
2022/08/11 03:39:08;;;;;;;7.03;4.90;;;;;;;14.15;100.00;91097.25;5053925;28;20437;-78
2022/08/11 03:41:44;;;;;;;6.70;5.13;;;;;;;14.09;100.00;91098.56;5197590;22;20016;-74
2022/08/11 03:44:31;;;;;;;8.70;6.10;;;;;;;13.93;100.00;91094.88;5012188;28;20042;-66
2022/08/11 03:47:44;;;;;;;12.82;7.55;;;;;;;13.83;100.00;91100.59;5012165;28;20037;-67
2022/08/11 03:50:38;;;;;;;5.97;4.75;;;;;;;13.80;100.00;91102.03;5006346;28;20045;-67
2022/08/11 03:53:11;;;;;;;7.20;4.68;;;;;;;13.89;100.00;91110.81;5012050;28;20507;-66
2022/08/11 03:55:48;;;;;;;6.97;5.03;;;;;;;13.98;100.00;91108.06;5011909;28;20044;-67
2022/08/11 03:58:47;;;;;;;5.88;4.57;;;;;;;14.01;100.00;91110.09;5012005;28;20104;-66
2022/08/11 04:01:18;;;;;;;6.38;4.65;;;;;;;14.05;100.00;91116.38;5011982;28;20018;-69
2022/08/11 04:04:05;;;;;;;8.68;5.00;;;;;;;14.10;100.00;91105.47;5011763;28;20459;-68
2022/08/11 04:07:13;;;;;;;5.25;4.20;;;;;;;14.19;100.00;91103.50;5011445;28;20026;-66
2022/08/11 04:10:06;;;;;;;6.00;3.92;;;;;;;14.25;100.00;91112.16;4994074;28;20022;-66
2022/08/11 04:13:09;;;;;;;6.15;4.40;;;;;;;14.25;100.00;91106.78;5011702;28;20091;-67
2022/08/11 04:16:20;;;;;;;5.93;4.45;;;;;;;14.24;100.00;91105.22;5011670;28;20227;-67
2022/08/11 04:19:11;;;;;;;6.30;4.50;;;;;;;14.22;100.00;91102.88;5011594;28;20021;-67
2022/08/11 04:22:04;;;;;;;5.47;4.40;;;;;;;14.32;100.00;91102.47;5011356;28;20030;-67
2022/08/11 04:24:53;;;;;;;6.03;4.50;;;;;;;14.44;100.00;91098.34;5011484;28;20594;-67
2022/08/11 04:27:25;;;;;;;6.45;4.22;;;;;;;14.57;100.00;91097.28;4993894;28;20026;-67
2022/08/11 04:29:59;;;;;;;6.22;4.25;;;;;;;14.66;100.00;91095.28;4993817;28;20029;-67
2022/08/11 04:32:46;;;;;;;6.60;4.07;;;;;;;14.73;100.00;91108.16;5011264;28;20061;-67
2022/08/11 04:35:30;;;;;;;5.63;4.13;;;;;;;14.85;100.00;91110.91;5011348;28;20030;-67
2022/08/11 04:38:17;;;;;;;7.18;4.60;;;;;;;14.97;100.00;91095.63;5011238;28;20025;-67
2022/08/11 04:41:13;;;;;;;4.55;4.13;;;;;;;15.13;100.00;91103.81;5011486;28;20637;-67
2022/08/11 04:44:10;;;;;;;5.32;3.95;;;;;;;15.34;100.00;91106.44;5011041;28;20062;-67
2022/08/11 04:47:06;;;;;;;9.45;5.57;;;;;;;15.52;100.00;91104.34;4989118;28;20041;-68
2022/08/11 05:02:46;;;;;;;6.55;5.00;;;;;;;16.63;100.00;91105.84;4991791;28;20411;-67
2022/08/11 05:05:40;;;;;;;3.92;3.53;;;;;;;16.74;100.00;91096.22;4958777;28;20110;-67
2022/08/11 05:08:42;;;;;;;4.32;3.92;;;;;;;16.96;100.00;91106.41;4991579;28;20101;-67
2022/08/11 05:11:11;;;;;;;5.53;4.00;;;;;;;17.87;100.00;91108.38;4991557;28;20062;-67
2022/08/11 05:36:52;;;;;;;4.53;2.95;;;;;;;29.73;49.98;91107.34;4995010;28;20038;-67
2022/08/11 05:56:19;;;;;;;3.25;2.92;;;;;;;32.82;44.00;91111.59;5014183;28;20028;-67
2022/08/11 05:58:49;;;;;;;2.95;2.63;;;;;;;33.81;41.78;91112.25;5014170;28;20465;-66
2022/08/11 06:01:29;;;;;;;3.38;2.85;;;;;;;33.68;41.29;91111.53;5014187;28;20026;-66
2022/08/11 06:04:13;;;;;;;5.03;3.45;;;;;;;32.48;43.14;91104.75;5014098;28;20168;-66
2022/08/11 06:06:50;;;;;;;6.22;4.15;;;;;;;32.26;43.85;91114.09;5014056;28;20029;-66
2022/08/11 06:09:23;;;;;;;4.25;3.85;;;;;;;34.41;40.88;91120.34;5014167;28;20065;-67
2022/08/11 06:11:49;;;;;;;4.00;3.35;;;;;;;33.80;41.14;91119.75;5000260;28;20034;-67
2022/08/11 06:14:15;;;;;;;2.90;2.70;;;;;;;33.77;41.52;91117.09;4994180;28;20523;-67
2022/08/11 06:16:42;;;;;;;7.05;4.60;;;;;;;34.01;40.94;91118.25;4994033;28;20027;-67
2022/08/11 06:19:08;;;;;;;3.33;2.70;;;;;;;34.35;39.74;91125.66;4994238;28;20069;-67
2022/08/11 06:21:35;;;;;;;3.20;2.90;;;;;;;35.33;38.95;91126.97;4993888;28;20026;-66
2022/08/11 06:24:09;;;;;;;3.10;2.90;;;;;;;35.46;38.82;91116.56;4993984;28;20471;-67
2022/08/11 06:26:36;;;;;;;3.42;3.13;;;;;;;35.38;38.36;91129.19;4993543;28;20073;-66
2022/08/11 06:29:04;;;;;;;4.43;3.30;;;;;;;34.44;39.33;91119.44;4993544;28;20058;-67
2022/08/11 06:31:32;;;;;;;3.25;2.95;;;;;;;35.35;38.56;91116.25;4993611;28;20065;-67
2022/08/11 06:34:06;;;;;;;3.22;2.92;;;;;;;36.46;37.00;91115.03;4995030;28;20949;-67
2022/08/11 06:36:35;;;;;;;4.63;2.60;;;;;;;37.30;35.54;91114.25;5012406;28;20116;-66
2022/08/11 06:39:07;;;;;;;3.17;2.88;;;;;;;36.37;36.74;91112.28;5010117;28;20033;-67
2022/08/11 06:42:04;;;;;;;3.25;2.95;;;;;;;36.41;36.65;91113.63;5011861;28;20028;-68
2022/08/11 06:44:39;;;;;;;3.53;3.15;;;;;;;38.82;33.50;91111.13;5011322;28;20484;-68
2022/08/11 06:47:08;;;;;;;6.50;3.33;;;;;;;37.33;35.13;91118.84;5010656;28;20033;-67
2022/08/11 06:52:36;;;;;;;2.90;2.70;;;;;;;37.34;33.85;91106.50;4994444;28;20076;-66
2022/08/11 06:55:12;;;;;;;3.40;2.88;;;;;;;38.66;33.24;91106.03;5012361;28;20076;-66
2022/08/11 07:00:32;;;;;;;6.53;3.42;;;;;;;33.46;38.14;91109.53;5013133;28;20411;-67
2022/08/11 07:03:19;;;;;;;3.25;2.75;;;;;;;35.56;37.04;91109.06;5012932;28;20410;-67
2022/08/11 07:05:48;;;;;;;2.67;2.47;;;;;;;38.03;33.61;91113.72;5012727;28;20033;-68
2022/08/11 07:17:41;;;;;;;3.08;2.78;;;;;;;36.57;35.51;91127.13;5012508;28;20514;-67
2022/08/11 07:28:54;;;;;;;4.75;3.00;;;;;;;38.91;33.18;91124.91;5012142;28;20033;-66
2022/08/11 07:31:25;;;;;;;2.95;2.65;;;;;;;36.63;34.63;91112.66;5012235;28;20037;-66
2022/08/11 07:34:00;;;;;;;2.80;2.50;;;;;;;35.69;35.34;91109.69;5012020;28;20144;-66
2022/08/11 07:36:29;;;;;;;2.65;2.45;;;;;;;34.57;36.88;91122.88;5012127;28;20037;-66
2022/08/11 07:38:56;;;;;;;3.13;2.90;;;;;;;34.28;38.22;91106.59;5012107;28;20083;-65
2022/08/11 07:41:23;;;;;;;3.95;2.50;;;;;;;38.40;33.59;91110.66;5010991;28;20026;-66
2022/08/11 07:43:54;;;;;;;3.15;2.85;;;;;;;37.61;33.62;91109.09;5011899;28;20052;-66
2022/08/11 07:54:37;;;;;;;2.88;2.40;;;;;;;37.26;33.46;91108.84;5011951;28;20033;-66
2022/08/11 08:19:12;;;;;;;2.42;2.22;;;;;;;27.41;48.72;91088.25;5011787;28;20088;-66
2022/08/11 08:21:38;;;;;;;3.20;2.90;;;;;;;25.58;51.54;91094.78;5011437;28;20080;-65
2022/08/11 08:24:06;;;;;;;2.88;2.65;;;;;;;28.29;49.72;91087.53;5011551;28;20034;-66
2022/08/11 08:32:20;;;;;;;2.38;2.17;;;;;;;37.47;34.20;91096.72;5011305;28;20045;-64
2022/08/11 08:34:49;;;;;;;2.97;2.38;;;;;;;37.43;33.76;91098.13;5011286;28;20168;-65
2022/08/11 08:37:18;;;;;;;2.30;2.10;;;;;;;35.20;35.67;91088.41;4993686;28;20431;-64
2022/08/11 08:39:45;;;;;;;4.35;2.80;;;;;;;32.53;39.21;91080.66;5010969;28;20034;-65
2022/08/11 08:42:12;;;;;;;2.97;2.33;;;;;;;32.13;40.19;91083.78;5010949;28;20049;-64
2022/08/11 08:44:45;;;;;;;5.70;3.00;;;;;;;34.93;35.27;91082.81;5010184;28;20551;-65
2022/08/11 08:47:17;;;;;;;2.33;2.13;;;;;;;32.07;38.48;91085.56;5007937;28;20022;-63
2022/08/11 08:49:50;;;;;;;4.20;2.70;;;;;;;31.02;41.57;91077.78;5010907;28;20073;-65
2022/08/11 08:52:20;;;;;;;2.13;1.92;;;;;;;31.74;39.58;91074.72;5013683;28;20127;-65
2022/08/11 08:54:52;;;;;;;3.72;2.53;;;;;;;30.68;41.56;91081.75;5014635;28;20033;-66
2022/08/11 08:57:21;;;;;;;5.43;4.72;;;;;;;30.22;41.52;91074.56;5015460;28;20034;-65
2022/08/11 08:59:49;;;;;;;2.47;2.28;;;;;;;31.91;39.93;91082.88;5015132;28;20033;-65
2022/08/11 09:02:18;;;;;;;1.92;1.83;;;;;;;33.50;37.11;91073.53;5015045;28;20510;-65
2022/08/11 09:04:45;;;;;;;2.60;2.08;;;;;;;36.56;33.90;91075.72;5015359;28;20034;-65
2022/08/11 09:07:14;;;;;;;2.28;2.00;;;;;;;39.38;30.41;91070.22;5015283;28;20098;-65
2022/08/11 09:09:52;;;;;;;2.30;2.10;;;;;;;40.22;28.92;91070.47;5014420;28;20044;-65
2022/08/11 09:12:20;;;;;;;2.00;1.80;;;;;;;37.73;31.21;91074.81;5014832;28;20034;-69
2022/08/11 09:15:03;;;;;;;2.50;1.98;;;;;;;37.68;30.71;91075.41;5014314;28;20128;-67
2022/08/11 09:17:40;;;;;;;3.58;2.33;;;;;;;38.19;30.75;91071.63;5011814;28;20467;-71
2022/08/11 09:20:12;;;;;;;2.00;1.80;;;;;;;40.33;28.70;91070.56;5015028;28;20052;-70
2022/08/11 09:28:15;;;;;;;2.08;1.80;;;;;;;39.32;29.21;91065.84;5013843;28;20414;-70
2022/08/11 09:30:42;;;;;;;2.20;2.00;;;;;;;39.05;29.16;91072.50;5014588;28;20030;-70
2022/08/11 09:33:11;;;;;;;3.25;2.10;;;;;;;40.36;28.12;91064.00;5014394;28;20068;-70
2022/08/11 09:35:41;;;;;;;2.15;1.92;;;;;;;39.34;28.54;91060.53;5012678;28;20129;-70
2022/08/11 09:40:54;;;;;;;2.38;2.17;;;;;;;39.68;28.55;91061.75;4995706;28;20494;-74
2022/08/11 09:46:05;;;;;;;2.45;1.80;;;;;;;39.35;27.78;91056.50;5011889;28;20088;-76
2022/08/11 09:48:38;;;;;;;2.05;1.83;;;;;;;38.15;28.51;91043.22;5013568;28;20475;-79
2022/08/11 09:51:06;;;;;;;1.95;1.75;;;;;;;38.83;28.68;91040.34;5011802;28;20084;-74
2022/08/11 09:53:35;;;;;;;2.08;1.95;;;;;;;38.23;28.31;91040.88;5007046;28;20018;-74
2022/08/11 09:58:12;;;;;;;1.77;1.67;;;;;;;37.40;29.55;91040.78;5011318;28;20579;-70
2022/08/11 09:58:48;;;;;;;3.50;1.90;;;;;;;37.51;29.83;91041.00;5013054;28;20474;-72
2022/08/11 10:01:25;;;;;;;3.28;2.28;;;;;;;39.77;27.33;91026.16;5012893;28;20117;-75
2022/08/11 10:03:57;;;;;;;1.88;1.77;;;;;;;38.11;29.43;91026.00;5013228;28;20061;-71
2022/08/11 10:09:08;;;;;;;2.78;2.40;;;;;;;36.63;30.82;91023.97;5013682;28;20116;-71
2022/08/11 10:11:37;;;;;;;1.90;1.80;;;;;;;35.21;31.76;91031.84;5013310;28;20468;-73
2022/08/11 10:16:50;;;;;;;1.83;1.73;;;;;;;36.26;31.51;91026.84;5013574;28;20123;-69
2022/08/11 10:19:18;;;;;;;2.10;1.90;;;;;;;35.50;31.41;91030.63;5013812;28;20037;-69
2022/08/11 10:27:20;;;;;;;2.08;1.83;;;;;;;37.60;29.55;91024.28;5008655;28;20068;-70
2022/08/11 10:35:19;;;;;;;2.08;1.90;;;;;;;35.96;32.01;91012.00;5013476;28;20581;-70
2022/08/11 10:37:46;;;;;;;4.22;2.25;;;;;;;34.58;33.00;91002.84;5012248;28;20018;-71
2022/08/11 10:40:21;;;;;;;2.13;1.92;;;;;;;37.11;30.92;90999.81;5012824;28;20050;-71
2022/08/11 10:43:05;;;;;;;2.25;1.80;;;;;;;36.50;32.03;91005.53;5012764;28;20042;-71
2022/08/11 10:48:25;;;;;;;2.00;1.80;;;;;;;34.62;32.41;90992.41;5012899;28;20061;-72
2022/08/11 10:59:25;;;;;;;2.10;1.90;;;;;;;36.90;30.29;90976.69;4995856;28;20037;-72
2022/08/11 11:01:52;;;;;;;2.03;1.80;;;;;;;37.86;29.73;90987.66;5012604;28;20052;-72
2022/08/11 11:04:25;;;;;;;2.17;1.75;;;;;;;38.74;29.21;90981.28;5012792;28;20057;-72
2022/08/11 11:07:12;;;;;;;2.30;1.98;;;;;;;39.26;26.80;90984.25;5011891;28;20036;-73
2022/08/11 11:09:48;;;;;;;1.90;1.80;;;;;;;38.85;28.37;90987.00;5012623;28;20032;-72
2022/08/11 11:18:27;;;;;;;2.13;1.83;;;;;;;36.36;32.18;90980.50;5012982;28;20049;-72
2022/08/11 11:21:06;;;;;;;2.25;2.00;;;;;;;35.08;31.39;90973.16;5012120;28;20036;-72
2022/08/11 11:23:50;;;;;;;2.30;2.10;;;;;;;35.19;31.69;90973.47;5012243;28;20454;-72
2022/08/11 11:26:59;;;;;;;3.83;2.40;;;;;;;36.08;31.34;90977.03;5012422;28;20029;-71
2022/08/11 11:29:30;;;;;;;2.33;2.13;;;;;;;36.69;31.39;90977.72;5011961;28;20030;-71
2022/08/11 11:32:29;;;;;;;2.00;1.75;;;;;;;39.26;29.60;90973.13;5011241;28;20034;-72
2022/08/11 11:35:25;;;;;;;2.63;2.22;;;;;;;38.45;28.76;90971.72;5013312;28;20033;-72
2022/08/11 11:37:52;;;;;;;2.08;1.88;;;;;;;36.40;30.54;90959.69;5011939;28;20073;-72
2022/08/11 11:40:21;;;;;;;2.60;2.00;;;;;;;36.18;30.15;90953.63;5011789;28;20380;-72
2022/08/11 11:42:48;;;;;;;1.90;1.80;;;;;;;36.72;31.23;90949.81;5011199;28;20554;-72
2022/08/11 11:45:19;;;;;;;4.35;3.05;;;;;;;34.64;33.65;90954.03;5011561;28;20503;-71
2022/08/11 11:47:48;;;;;;;2.30;2.10;;;;;;;29.99;39.15;90943.00;4997663;28;20056;-71
2022/08/11 11:50:14;;;;;;;7.88;2.47;;;;;;;29.01;41.73;90945.50;5011967;28;20038;-71
2022/08/11 11:52:42;;;;;;;2.20;2.00;;;;;;;28.29;42.14;90951.50;5011458;28;20025;-71
2022/08/11 11:55:09;;;;;;;3.30;2.40;;;;;;;28.44;42.59;90940.31;5011733;28;20495;-71
2022/08/11 12:03:08;;;;;;;2.60;2.38;;;;;;;28.29;42.67;90945.28;5009715;28;20032;-71
2022/08/11 12:05:35;;;;;;;4.60;3.67;;;;;;;28.06;42.00;90943.28;5011385;28;20029;-72
2022/08/11 12:08:10;;;;;;;2.45;2.10;;;;;;;28.16;42.74;90945.06;5016997;28;20018;-72
2022/08/11 12:10:37;;;;;;;2.88;2.45;;;;;;;28.41;43.50;90941.94;5012276;28;20025;-71
2022/08/11 12:15:49;;;;;;;2.42;2.17;;;;;;;26.93;45.91;90932.75;5011657;28;20052;-72
2022/08/11 12:18:15;;;;;;;2.20;2.00;;;;;;;26.38;46.50;90941.97;5011144;28;20068;-72
2022/08/11 12:20:43;;;;;;;2.70;2.50;;;;;;;26.24;47.39;90944.81;5011326;28;20065;-72
2022/08/11 12:28:38;;;;;;;3.03;2.70;;;;;;;26.31;48.19;90950.19;5011483;28;20036;-72
2022/08/11 12:31:08;;;;;;;2.88;2.45;;;;;;;26.24;48.76;90961.16;5011016;28;20029;-71
2022/08/11 12:33:35;;;;;;;5.22;3.58;;;;;;;26.49;52.80;90955.47;5007877;28;20499;-70
2022/08/11 12:36:00;;;;;;;3.00;2.70;;;;;;;26.83;52.70;90952.78;4999224;28;20173;-72
2022/08/11 12:38:29;;;;;;;2.70;2.50;;;;;;;26.23;59.32;90951.44;5016288;28;20045;-72
2022/08/11 12:46:32;;;;;;;3.33;3.03;;;;;;;25.68;74.25;90953.06;5010984;28;20049;-70
2022/08/11 12:51:57;;;;;;;5.22;2.55;;;;;;;23.90;100.00;90969.25;5011072;28;20049;-70
2022/08/11 12:54:41;;;;;;;5.05;3.42;;;;;;;23.47;100.00;90961.03;5010740;28;20120;-69
2022/08/11 13:05:31;;;;;;;4.63;3.83;;;;;;;23.32;100.00;90951.31;5010982;28;20541;-69
2022/08/11 13:08:00;;;;;;;5.18;3.65;;;;;;;23.83;100.00;90961.09;5010193;28;20030;-70
2022/08/11 13:13:13;;;;;;;3.78;3.28;;;;;;;24.62;99.12;90953.59;5007545;28;20187;-71
2022/08/11 13:15:39;;;;;;;3.33;2.97;;;;;;;24.77;92.50;90945.00;5010184;28;20121;-69
2022/08/11 13:18:08;;;;;;;4.82;3.28;;;;;;;24.76;97.86;90942.63;4992988;28;20034;-70
2022/08/11 13:20:34;;;;;;;5.78;3.38;;;;;;;24.49;100.00;90940.44;5010362;28;20045;-71
2022/08/11 13:23:02;;;;;;;3.40;3.10;;;;;;;23.54;100.00;90958.34;5010604;28;20030;-70
2022/08/11 13:25:30;;;;;;;3.92;3.53;;;;;;;22.63;100.00;90960.44;5010400;28;20042;-69
2022/08/11 13:27:58;;;;;;;3.83;3.05;;;;;;;22.06;100.00;90953.94;4992694;28;20446;-70
2022/08/11 13:33:17;;;;;;;6.43;5.47;;;;;;;21.55;100.00;90978.31;5002618;28;20091;-69
2022/08/11 13:35:48;;;;;;;8.13;6.10;;;;;;;21.22;100.00;90991.50;5004609;28;20034;-69
2022/08/11 13:38:15;;;;;;;9.85;4.00;;;;;;;20.81;100.00;90987.22;5014335;28;20041;-71
2022/08/11 13:40:42;;;;;;;3.17;2.88;;;;;;;20.56;100.00;90984.22;5013180;28;20088;-69
2022/08/11 13:43:08;;;;;;;4.45;3.50;;;;;;;20.12;100.00;90982.09;5024564;28;20057;-69
2022/08/11 13:45:36;;;;;;;4.13;3.33;;;;;;;19.80;100.00;90991.66;5015171;28;20132;-70
2022/08/11 13:48:05;;;;;;;6.00;3.92;;;;;;;19.49;100.00;91000.78;5014304;28;20053;-69
2022/08/11 13:53:21;;;;;;;5.93;4.07;;;;;;;19.40;100.00;90996.38;5013016;28;20129;-69
2022/08/11 13:55:48;;;;;;;6.32;4.10;;;;;;;19.71;100.00;90994.59;5013142;28;20034;-70
2022/08/11 13:58:15;;;;;;;4.50;3.60;;;;;;;19.82;100.00;90992.06;4993046;28;20038;-71
2022/08/11 14:00:45;;;;;;;7.32;3.38;;;;;;;19.85;100.00;90984.00;5012858;28;20038;-69
2022/08/11 14:03:12;;;;;;;3.45;2.95;;;;;;;20.00;100.00;90987.69;4995391;28;20073;-66
2022/08/11 14:05:46;;;;;;;4.35;3.42;;;;;;;20.16;100.00;90982.91;5013511;28;20046;-67
2022/08/11 14:08:19;;;;;;;6.03;3.97;;;;;;;20.26;100.00;90986.91;5013436;28;20056;-66
2022/08/11 14:13:36;;;;;;;4.05;3.65;;;;;;;20.16;100.00;90982.91;5012584;28;20038;-66
2022/08/11 14:13:37;;;;;;;5.47;3.45;;;;;;;20.24;100.00;90987.28;5012561;28;20045;-66
2022/08/11 14:16:08;;;;;;;5.03;3.47;;;;;;;20.25;100.00;90983.44;5013361;28;20030;-66
2022/08/11 14:18:37;;;;;;;5.28;3.38;;;;;;;20.40;100.00;90992.50;5013057;28;20109;-66
2022/08/11 14:23:53;;;;;;;4.35;3.45;;;;;;;20.47;100.00;90987.19;5012994;28;20068;-67
2022/08/11 14:26:25;;;;;;;5.97;3.55;;;;;;;20.82;100.00;90983.34;5013325;28;20046;-66
2022/08/11 14:28:53;;;;;;;3.60;3.05;;;;;;;21.37;100.00;90986.28;5011742;28;20026;-66
2022/08/11 14:31:22;;;;;;;4.65;3.53;;;;;;;21.64;100.00;90982.25;5012681;28;20033;-66
2022/08/11 14:33:49;;;;;;;3.72;3.05;;;;;;;21.42;100.00;90969.69;5012986;28;20396;-68
2022/08/11 14:36:19;;;;;;;4.03;3.40;;;;;;;21.71;100.00;90976.09;5013182;28;20397;-67
2022/08/11 14:38:46;;;;;;;3.30;3.00;;;;;;;21.90;100.00;90973.16;5013355;28;20046;-67
2022/08/11 14:49:27;;;;;;;4.55;3.33;;;;;;;22.27;100.00;90981.19;5012365;28;20076;-67
2022/08/11 14:51:55;;;;;;;4.97;3.33;;;;;;;22.39;100.00;90967.28;5012511;28;20030;-67
2022/08/11 14:57:13;;;;;;;2.85;2.55;;;;;;;22.48;100.00;90966.16;5011974;28;20135;-67
2022/08/11 14:59:41;;;;;;;4.03;3.20;;;;;;;22.26;100.00;90968.00;5017707;28;20038;-67
2022/08/11 15:04:51;;;;;;;4.22;3.75;;;;;;;22.16;100.00;90957.88;5001064;28;20042;-67
2022/08/11 15:07:24;;;;;;;3.97;3.10;;;;;;;22.31;100.00;90954.09;5012445;28;20048;-67
2022/08/11 15:09:49;;;;;;;4.38;3.30;;;;;;;22.21;100.00;90955.56;5012481;28;20046;-67
2022/08/11 15:12:17;;;;;;;3.53;3.15;;;;;;;22.20;100.00;90959.44;5012107;28;20471;-67
2022/08/11 15:17:32;;;;;;;5.57;3.55;;;;;;;22.17;100.00;90954.00;5012525;28;20103;-67
2022/08/11 15:25:33;;;;;;;3.10;2.75;;;;;;;22.23;100.00;90957.91;5012551;28;20048;-68
2022/08/11 15:39:15;;;;;;;4.35;3.22;;;;;;;22.19;100.00;90947.03;5012302;28;20052;-67
2022/08/11 15:47:24;;;;;;;3.10;2.75;;;;;;;22.32;100.00;90944.78;5012338;28;20141;-68
2022/08/11 15:49:53;;;;;;;6.90;5.55;;;;;;;22.42;100.00;90944.84;5011927;28;20068;-67
2022/08/11 15:52:24;;;;;;;19.75;13.32;;;;;;;22.40;100.00;90952.56;5012031;28;20053;-67
2022/08/11 15:54:50;;;;;;;4.45;3.50;;;;;;;22.57;100.00;90953.84;5011857;28;20052;-67
2022/08/11 16:05:21;;;;;;;2.83;2.53;;;;;;;22.89;98.50;90945.84;5011169;28;20034;-69
2022/08/11 16:07:50;;;;;;;4.25;3.63;;;;;;;22.89;100.00;90962.13;5011562;28;20026;-66
2022/08/11 16:10:20;;;;;;;5.50;3.70;;;;;;;22.84;100.00;90953.53;5011591;28;20128;-66
2022/08/11 16:18:41;;;;;;;4.43;3.45;;;;;;;22.62;100.00;90942.59;5011704;28;20076;-67
2022/08/11 16:21:15;;;;;;;4.45;3.35;;;;;;;22.50;100.00;90942.16;5011242;28;20029;-67
2022/08/11 16:23:45;;;;;;;3.72;3.20;;;;;;;22.22;100.00;90942.78;5011365;28;20045;-67
2022/08/11 16:26:12;;;;;;;5.20;3.85;;;;;;;21.99;100.00;90943.81;5011013;28;20022;-68
2022/08/11 16:28:39;;;;;;;4.95;2.90;;;;;;;22.02;100.00;90942.28;5011542;28;20033;-68
2022/08/11 16:31:09;;;;;;;3.60;3.10;;;;;;;22.09;100.00;90951.28;5011287;28;20022;-68
2022/08/11 16:33:39;;;;;;;5.05;3.40;;;;;;;22.19;100.00;90955.19;5011355;28;20527;-69
2022/08/11 16:38:54;;;;;;;8.80;4.30;;;;;;;22.25;100.00;90959.09;5011472;28;20575;-67
2022/08/11 16:47:15;;;;;;;4.30;3.38;;;;;;;21.50;100.00;90952.38;4988467;28;20050;-67
2022/08/11 16:49:51;;;;;;;5.53;3.40;;;;;;;21.55;100.00;90965.53;5011082;28;20025;-70
2022/08/11 16:52:17;;;;;;;6.38;3.05;;;;;;;21.44;100.00;90970.09;5011038;28;20033;-70